sensor_id;sensor_type;location;lat;lon;timestamp;pressure;altitude;pressure_sealevel;temperature;humidity
20971;BME280;10644;48.834;10.088;2023-05-02T00:00:13;96704.91;;;15.81;57.34
20971;BME280;10644;48.834;10.088;2023-05-02T00:02:38;96713.16;;;15.86;56.80
20971;BME280;10644;48.834;10.088;2023-05-02T00:05:05;96715.97;;;15.94;57.09
20971;BME280;10644;48.834;10.088;2023-05-02T00:07:31;96711.28;;;15.99;57.53
20971;BME280;10644;48.834;10.088;2023-05-02T00:09:57;96715.75;;;15.86;56.95
20971;BME280;10644;48.834;10.088;2023-05-02T00:12:24;96710.34;;;15.78;57.19
20971;BME280;10644;48.834;10.088;2023-05-02T00:14:50;96702.69;;;15.76;57.73
20971;BME280;10644;48.834;10.088;2023-05-02T00:17:16;96705.97;;;15.78;57.58
20971;BME280;10644;48.834;10.088;2023-05-02T00:19:44;96710.09;;;15.81;57.01
20971;BME280;10644;48.834;10.088;2023-05-02T00:22:13;96699.53;;;15.84;57.17
20971;BME280;10644;48.834;10.088;2023-05-02T00:24:41;96701.88;;;15.87;56.83
20971;BME280;10644;48.834;10.088;2023-05-02T00:27:09;96709.88;;;15.84;56.63
20971;BME280;10644;48.834;10.088;2023-05-02T00:29:34;96700.91;;;15.77;56.01
20971;BME280;10644;48.834;10.088;2023-05-02T00:32:00;96700.88;;;15.66;56.28
20971;BME280;10644;48.834;10.088;2023-05-02T00:34:29;96702.63;;;15.54;56.68
20971;BME280;10644;48.834;10.088;2023-05-02T00:36:58;96699.53;;;15.49;56.57
20971;BME280;10644;48.834;10.088;2023-05-02T00:39:24;96701.25;;;15.38;56.91
20971;BME280;10644;48.834;10.088;2023-05-02T00:41:55;96706.00;;;15.44;57.33
20971;BME280;10644;48.834;10.088;2023-05-02T00:44:21;96704.72;;;15.49;57.21
20971;BME280;10644;48.834;10.088;2023-05-02T00:46:46;96702.91;;;15.39;57.52
20971;BME280;10644;48.834;10.088;2023-05-02T00:49:14;96703.53;;;15.30;57.95
20971;BME280;10644;48.834;10.088;2023-05-02T00:51:40;96705.88;;;15.22;57.86
20971;BME280;10644;48.834;10.088;2023-05-02T00:54:07;96709.44;;;15.08;58.36
20971;BME280;10644;48.834;10.088;2023-05-02T00:56:33;96707.34;;;15.13;58.47
20971;BME280;10644;48.834;10.088;2023-05-02T00:58:58;96707.25;;;15.26;58.18
20971;BME280;10644;48.834;10.088;2023-05-02T01:06:35;96712.94;;;14.71;59.38
20971;BME280;10644;48.834;10.088;2023-05-02T01:09:28;96726.44;;;14.75;59.10
20971;BME280;10644;48.834;10.088;2023-05-02T01:12:03;96719.38;;;14.89;59.07
20971;BME280;10644;48.834;10.088;2023-05-02T01:14:33;96721.00;;;15.03;58.55
20971;BME280;10644;48.834;10.088;2023-05-02T01:17:03;96724.56;;;15.13;58.52
20971;BME280;10644;48.834;10.088;2023-05-02T01:19:39;96734.00;;;15.25;58.28
20971;BME280;10644;48.834;10.088;2023-05-02T01:22:07;96736.16;;;15.31;57.67
20971;BME280;10644;48.834;10.088;2023-05-02T01:24:39;96736.91;;;15.33;57.33
20971;BME280;10644;48.834;10.088;2023-05-02T01:29:49;96734.09;;;15.36;57.31
20971;BME280;10644;48.834;10.088;2023-05-02T01:32:16;96740.69;;;15.40;57.13
20971;BME280;10644;48.834;10.088;2023-05-02T01:34:45;96743.50;;;15.37;57.11
20971;BME280;10644;48.834;10.088;2023-05-02T01:37:12;96741.84;;;15.36;57.13
20971;BME280;10644;48.834;10.088;2023-05-02T01:39:39;96740.56;;;15.18;57.10
20971;BME280;10644;48.834;10.088;2023-05-02T01:42:10;96741.44;;;15.06;57.63
20971;BME280;10644;48.834;10.088;2023-05-02T01:44:37;96738.34;;;15.01;57.70
20971;BME280;10644;48.834;10.088;2023-05-02T01:47:04;96755.47;;;15.02;57.41
20971;BME280;10644;48.834;10.088;2023-05-02T01:49:32;96744.94;;;15.05;57.96
20971;BME280;10644;48.834;10.088;2023-05-02T01:52:06;96750.31;;;15.02;57.78
20971;BME280;10644;48.834;10.088;2023-05-02T01:54:34;96752.97;;;15.00;57.91
20971;BME280;10644;48.834;10.088;2023-05-02T01:57:01;96753.03;;;14.88;57.84
20971;BME280;10644;48.834;10.088;2023-05-02T01:59:30;96748.78;;;14.87;58.01
20971;BME280;10644;48.834;10.088;2023-05-02T02:01:58;96749.28;;;14.92;57.82
20971;BME280;10644;48.834;10.088;2023-05-02T02:04:25;96751.06;;;14.91;57.30
20971;BME280;10644;48.834;10.088;2023-05-02T02:06:57;96743.75;;;14.85;57.26
20971;BME280;10644;48.834;10.088;2023-05-02T02:09:25;96738.41;;;14.76;57.12
20971;BME280;10644;48.834;10.088;2023-05-02T02:12:00;96742.75;;;14.75;56.83
20971;BME280;10644;48.834;10.088;2023-05-02T02:14:39;96757.28;;;14.76;57.17
20971;BME280;10644;48.834;10.088;2023-05-02T02:17:25;96756.00;;;14.82;57.02
20971;BME280;10644;48.834;10.088;2023-05-02T02:19:55;96757.19;;;14.78;56.94
20971;BME280;10644;48.834;10.088;2023-05-02T02:22:26;96762.34;;;14.78;57.17
20971;BME280;10644;48.834;10.088;2023-05-02T02:24:53;96762.34;;;14.78;57.43
20971;BME280;10644;48.834;10.088;2023-05-02T02:27:19;96759.88;;;14.76;57.12
20971;BME280;10644;48.834;10.088;2023-05-02T02:29:45;96766.56;;;14.79;57.44
20971;BME280;10644;48.834;10.088;2023-05-02T02:32:10;96774.31;;;14.79;57.37
20971;BME280;10644;48.834;10.088;2023-05-02T02:34:35;96770.78;;;14.80;57.53
20971;BME280;10644;48.834;10.088;2023-05-02T02:37:12;96761.06;;;14.83;57.18
20971;BME280;10644;48.834;10.088;2023-05-02T02:40:02;96758.41;;;14.72;56.58
20971;BME280;10644;48.834;10.088;2023-05-02T02:42:38;96771.03;;;14.52;56.43
20971;BME280;10644;48.834;10.088;2023-05-02T02:47:38;96783.50;;;14.58;56.75
20971;BME280;10644;48.834;10.088;2023-05-02T02:50:18;96785.13;;;14.59;56.86
20971;BME280;10644;48.834;10.088;2023-05-02T02:53:08;96784.84;;;14.51;56.84
20971;BME280;10644;48.834;10.088;2023-05-02T02:58:20;96790.31;;;14.34;57.38
20971;BME280;10644;48.834;10.088;2023-05-02T03:00:51;96799.44;;;14.13;58.29
20971;BME280;10644;48.834;10.088;2023-05-02T03:03:18;96796.34;;;13.95;58.92
20971;BME280;10644;48.834;10.088;2023-05-02T03:05:46;96807.16;;;14.00;58.42
20971;BME280;10644;48.834;10.088;2023-05-02T03:08:14;96803.34;;;14.06;58.44
20971;BME280;10644;48.834;10.088;2023-05-02T03:10:39;96797.06;;;14.10;57.95
20971;BME280;10644;48.834;10.088;2023-05-02T03:13:05;96798.31;;;14.17;57.79
20971;BME280;10644;48.834;10.088;2023-05-02T03:15:59;96801.44;;;14.22;57.23
20971;BME280;10644;48.834;10.088;2023-05-02T03:18:30;96807.31;;;14.24;57.05
20971;BME280;10644;48.834;10.088;2023-05-02T03:20:57;96807.13;;;14.27;57.04
20971;BME280;10644;48.834;10.088;2023-05-02T03:23:22;96807.69;;;14.18;57.09
20971;BME280;10644;48.834;10.088;2023-05-02T03:25:49;96809.56;;;14.16;57.19
20971;BME280;10644;48.834;10.088;2023-05-02T03:28:19;96813.59;;;14.20;56.91
20971;BME280;10644;48.834;10.088;2023-05-02T03:30:47;96820.00;;;14.27;57.52
20971;BME280;10644;48.834;10.088;2023-05-02T03:33:14;96826.50;;;14.32;57.35
20971;BME280;10644;48.834;10.088;2023-05-02T03:35:40;96829.81;;;14.34;57.07
20971;BME280;10644;48.834;10.088;2023-05-02T03:38:06;96826.31;;;14.35;56.76
20971;BME280;10644;48.834;10.088;2023-05-02T03:40:34;96826.41;;;14.34;57.03
20971;BME280;10644;48.834;10.088;2023-05-02T03:42:59;96821.44;;;14.31;57.19
20971;BME280;10644;48.834;10.088;2023-05-02T03:45:25;96833.06;;;14.24;57.44
20971;BME280;10644;48.834;10.088;2023-05-02T03:47:50;96841.50;;;14.13;57.63
20971;BME280;10644;48.834;10.088;2023-05-02T03:50:15;96847.44;;;14.01;57.69
20971;BME280;10644;48.834;10.088;2023-05-02T03:52:45;96853.00;;;14.08;57.71
20971;BME280;10644;48.834;10.088;2023-05-02T03:55:11;96849.31;;;14.12;57.88
20971;BME280;10644;48.834;10.088;2023-05-02T03:57:39;96850.78;;;14.16;57.95
20971;BME280;10644;48.834;10.088;2023-05-02T04:00:05;96853.69;;;14.24;57.53
20971;BME280;10644;48.834;10.088;2023-05-02T04:02:31;96847.91;;;14.20;57.69
20971;BME280;10644;48.834;10.088;2023-05-02T04:04:56;96852.03;;;14.23;57.73
20971;BME280;10644;48.834;10.088;2023-05-02T04:07:21;96860.31;;;14.28;57.96
20971;BME280;10644;48.834;10.088;2023-05-02T04:09:46;96860.91;;;14.31;57.93
20971;BME280;10644;48.834;10.088;2023-05-02T04:12:14;96854.66;;;14.35;58.14
20971;BME280;10644;48.834;10.088;2023-05-02T04:14:41;96871.84;;;14.35;58.20
20971;BME280;10644;48.834;10.088;2023-05-02T04:17:06;96867.63;;;14.34;58.33
20971;BME280;10644;48.834;10.088;2023-05-02T04:19:33;96877.53;;;14.40;58.61
20971;BME280;10644;48.834;10.088;2023-05-02T04:21:58;96874.25;;;14.38;58.82
20971;BME280;10644;48.834;10.088;2023-05-02T04:24:24;96871.72;;;14.24;59.38
20971;BME280;10644;48.834;10.088;2023-05-02T04:26:49;96884.06;;;14.19;60.22
20971;BME280;10644;48.834;10.088;2023-05-02T04:29:17;96888.44;;;14.04;61.22
20971;BME280;10644;48.834;10.088;2023-05-02T04:31:43;96899.34;;;13.95;61.49
20971;BME280;10644;48.834;10.088;2023-05-02T04:34:08;96899.53;;;13.92;61.91
20971;BME280;10644;48.834;10.088;2023-05-02T04:36:33;96898.28;;;13.85;62.47
20971;BME280;10644;48.834;10.088;2023-05-02T04:39:02;96895.22;;;13.93;62.38
20971;BME280;10644;48.834;10.088;2023-05-02T04:41:28;96901.63;;;14.00;62.12
20971;BME280;10644;48.834;10.088;2023-05-02T04:43:54;96900.22;;;14.08;62.01
20971;BME280;10644;48.834;10.088;2023-05-02T04:46:19;96904.34;;;14.11;62.13
20971;BME280;10644;48.834;10.088;2023-05-02T04:48:45;96902.88;;;14.21;62.12
20971;BME280;10644;48.834;10.088;2023-05-02T04:51:12;96909.78;;;14.33;61.81
20971;BME280;10644;48.834;10.088;2023-05-02T04:53:38;96910.19;;;14.27;62.24
20971;BME280;10644;48.834;10.088;2023-05-02T04:56:06;96913.41;;;14.04;63.00
20971;BME280;10644;48.834;10.088;2023-05-02T04:58:31;96916.63;;;13.93;63.82
20971;BME280;10644;48.834;10.088;2023-05-02T05:00:57;96920.28;;;13.77;64.14
20971;BME280;10644;48.834;10.088;2023-05-02T05:03:22;96923.00;;;13.88;63.82
20971;BME280;10644;48.834;10.088;2023-05-02T05:05:47;96921.78;;;13.93;63.51
20971;BME280;10644;48.834;10.088;2023-05-02T05:08:13;96914.91;;;13.80;64.36
20971;BME280;10644;48.834;10.088;2023-05-02T05:10:38;96929.69;;;13.64;65.28
20971;BME280;10644;48.834;10.088;2023-05-02T05:13:06;96924.34;;;13.67;65.17
20971;BME280;10644;48.834;10.088;2023-05-02T05:15:32;96932.22;;;13.78;64.91
20971;BME280;10644;48.834;10.088;2023-05-02T05:17:57;96926.63;;;13.71;65.03
20971;BME280;10644;48.834;10.088;2023-05-02T05:20:25;96938.63;;;13.85;64.56
20971;BME280;10644;48.834;10.088;2023-05-02T05:22:51;96936.81;;;13.87;64.86
20971;BME280;10644;48.834;10.088;2023-05-02T05:25:16;96936.03;;;13.99;64.41
20971;BME280;10644;48.834;10.088;2023-05-02T05:27:41;96934.22;;;14.13;63.78
20971;BME280;10644;48.834;10.088;2023-05-02T05:30:07;96927.47;;;14.25;63.49
20971;BME280;10644;48.834;10.088;2023-05-02T05:32:37;96945.03;;;14.32;63.10
20971;BME280;10644;48.834;10.088;2023-05-02T05:35:03;96940.72;;;14.33;63.29
20971;BME280;10644;48.834;10.088;2023-05-02T05:37:28;96937.53;;;14.42;63.17
20971;BME280;10644;48.834;10.088;2023-05-02T05:39:54;96939.59;;;14.49;63.11
20971;BME280;10644;48.834;10.088;2023-05-02T05:42:19;96942.63;;;14.56;63.11
20971;BME280;10644;48.834;10.088;2023-05-02T05:44:45;96941.59;;;14.58;62.39
20971;BME280;10644;48.834;10.088;2023-05-02T05:47:10;96948.22;;;14.62;62.67
20971;BME280;10644;48.834;10.088;2023-05-02T05:49:35;96946.53;;;14.61;62.94
20971;BME280;10644;48.834;10.088;2023-05-02T05:52:01;96953.13;;;14.53;63.54
20971;BME280;10644;48.834;10.088;2023-05-02T05:54:26;96951.47;;;14.52;63.68
20971;BME280;10644;48.834;10.088;2023-05-02T05:56:52;96956.13;;;14.59;63.73
20971;BME280;10644;48.834;10.088;2023-05-02T05:59:17;96955.41;;;14.70;63.40
20971;BME280;10644;48.834;10.088;2023-05-02T06:01:43;96955.00;;;14.76;63.15
20971;BME280;10644;48.834;10.088;2023-05-02T06:04:08;96964.31;;;14.78;63.31
20971;BME280;10644;48.834;10.088;2023-05-02T06:06:34;96955.66;;;14.79;63.26
20971;BME280;10644;48.834;10.088;2023-05-02T06:08:59;96955.13;;;14.87;63.27
20971;BME280;10644;48.834;10.088;2023-05-02T06:11:25;96961.03;;;14.89;63.19
20971;BME280;10644;48.834;10.088;2023-05-02T06:13:51;96964.13;;;14.94;63.13
20971;BME280;10644;48.834;10.088;2023-05-02T06:16:17;96970.31;;;14.79;63.51
20971;BME280;10644;48.834;10.088;2023-05-02T06:18:43;96980.22;;;14.85;63.38
20971;BME280;10644;48.834;10.088;2023-05-02T06:21:08;96980.50;;;14.93;63.16
20971;BME280;10644;48.834;10.088;2023-05-02T06:23:34;96984.16;;;14.90;63.31
20971;BME280;10644;48.834;10.088;2023-05-02T06:26:00;96983.41;;;14.88;63.73
20971;BME280;10644;48.834;10.088;2023-05-02T06:28:26;97003.94;;;14.90;63.52
20971;BME280;10644;48.834;10.088;2023-05-02T06:31:01;97008.66;;;14.71;64.05
20971;BME280;10644;48.834;10.088;2023-05-02T06:33:28;97010.38;;;14.58;64.15
20971;BME280;10644;48.834;10.088;2023-05-02T06:35:53;97017.16;;;14.59;64.46
20971;BME280;10644;48.834;10.088;2023-05-02T06:38:19;97019.34;;;14.65;64.95
20971;BME280;10644;48.834;10.088;2023-05-02T06:40:44;97023.47;;;14.55;64.86
20971;BME280;10644;48.834;10.088;2023-05-02T06:43:11;97025.13;;;14.56;65.06
20971;BME280;10644;48.834;10.088;2023-05-02T06:45:36;97026.59;;;14.60;64.70
20971;BME280;10644;48.834;10.088;2023-05-02T06:48:02;97023.78;;;14.63;64.88
20971;BME280;10644;48.834;10.088;2023-05-02T06:50:28;97024.72;;;14.62;64.88
20971;BME280;10644;48.834;10.088;2023-05-02T06:52:54;97035.88;;;14.75;64.62
20971;BME280;10644;48.834;10.088;2023-05-02T06:55:19;97036.72;;;14.75;64.79
20971;BME280;10644;48.834;10.088;2023-05-02T06:57:50;97036.06;;;14.59;65.13
20971;BME280;10644;48.834;10.088;2023-05-02T07:00:17;97039.66;;;14.57;65.18
20971;BME280;10644;48.834;10.088;2023-05-02T07:02:47;97040.09;;;14.63;64.64
20971;BME280;10644;48.834;10.088;2023-05-02T07:05:13;97042.06;;;14.60;64.31
20971;BME280;10644;48.834;10.088;2023-05-02T07:07:44;97053.25;;;14.59;64.62
20971;BME280;10644;48.834;10.088;2023-05-02T07:10:10;97050.22;;;14.40;65.25
20971;BME280;10644;48.834;10.088;2023-05-02T07:12:36;97049.81;;;14.46;65.20
20971;BME280;10644;48.834;10.088;2023-05-02T07:15:04;97057.31;;;14.63;64.76
20971;BME280;10644;48.834;10.088;2023-05-02T07:17:29;97055.66;;;14.62;64.73
20971;BME280;10644;48.834;10.088;2023-05-02T07:19:55;97057.31;;;14.63;64.49
20971;BME280;10644;48.834;10.088;2023-05-02T07:22:20;97056.53;;;14.75;64.51
20971;BME280;10644;48.834;10.088;2023-05-02T07:24:46;97060.34;;;14.82;64.67
20971;BME280;10644;48.834;10.088;2023-05-02T07:27:11;97060.69;;;14.90;64.54
20971;BME280;10644;48.834;10.088;2023-05-02T07:29:37;97061.53;;;15.03;63.59
20971;BME280;10644;48.834;10.088;2023-05-02T07:32:03;97057.53;;;14.99;63.47
20971;BME280;10644;48.834;10.088;2023-05-02T07:34:29;97072.09;;;15.00;63.72
20971;BME280;10644;48.834;10.088;2023-05-02T07:36:54;97070.94;;;15.04;63.36
20971;BME280;10644;48.834;10.088;2023-05-02T07:39:20;97064.88;;;15.05;63.53
20971;BME280;10644;48.834;10.088;2023-05-02T07:41:46;97071.28;;;15.12;63.27
20971;BME280;10644;48.834;10.088;2023-05-02T07:44:11;97072.75;;;15.16;62.90
20971;BME280;10644;48.834;10.088;2023-05-02T07:46:36;97069.63;;;15.11;63.27
20971;BME280;10644;48.834;10.088;2023-05-02T07:49:02;97076.81;;;14.93;63.75
20971;BME280;10644;48.834;10.088;2023-05-02T07:51:27;97082.28;;;14.89;63.86
20971;BME280;10644;48.834;10.088;2023-05-02T07:53:53;97076.22;;;15.02;63.60
20971;BME280;10644;48.834;10.088;2023-05-02T07:56:22;97077.13;;;15.01;63.62
20971;BME280;10644;48.834;10.088;2023-05-02T07:58:47;97081.38;;;15.02;63.80
20971;BME280;10644;48.834;10.088;2023-05-02T08:01:16;97081.56;;;14.99;63.76
20971;BME280;10644;48.834;10.088;2023-05-02T08:03:42;97082.81;;;15.06;63.10
20971;BME280;10644;48.834;10.088;2023-05-02T08:06:07;97084.75;;;15.03;63.29
20971;BME280;10644;48.834;10.088;2023-05-02T08:08:34;97082.94;;;15.05;63.32
20971;BME280;10644;48.834;10.088;2023-05-02T08:10:59;97082.31;;;15.14;63.38
20971;BME280;10644;48.834;10.088;2023-05-02T08:13:25;97087.28;;;15.17;63.07
20971;BME280;10644;48.834;10.088;2023-05-02T08:15:51;97084.50;;;15.20;63.37
20971;BME280;10644;48.834;10.088;2023-05-02T08:18:16;97077.66;;;15.33;62.96
20971;BME280;10644;48.834;10.088;2023-05-02T08:20:42;97095.88;;;15.30;63.06
20971;BME280;10644;48.834;10.088;2023-05-02T08:23:07;97087.75;;;15.36;63.16
20971;BME280;10644;48.834;10.088;2023-05-02T08:25:32;97095.41;;;15.50;62.99
20971;BME280;10644;48.834;10.088;2023-05-02T08:27:58;97089.31;;;15.38;62.93
20971;BME280;10644;48.834;10.088;2023-05-02T08:30:23;97084.75;;;15.42;62.81
20971;BME280;10644;48.834;10.088;2023-05-02T08:32:48;97099.44;;;15.54;62.72
20971;BME280;10644;48.834;10.088;2023-05-02T08:35:14;97095.09;;;15.54;62.98
20971;BME280;10644;48.834;10.088;2023-05-02T08:37:39;97098.63;;;15.53;62.77
20971;BME280;10644;48.834;10.088;2023-05-02T08:40:10;97101.50;;;15.61;62.48
20971;BME280;10644;48.834;10.088;2023-05-02T08:42:36;97101.91;;;15.43;63.16
20971;BME280;10644;48.834;10.088;2023-05-02T08:45:01;97110.69;;;15.53;63.20
20971;BME280;10644;48.834;10.088;2023-05-02T08:47:28;97108.94;;;15.53;63.34
20971;BME280;10644;48.834;10.088;2023-05-02T08:49:55;97111.22;;;15.58;62.92
20971;BME280;10644;48.834;10.088;2023-05-02T08:52:22;97107.50;;;15.62;63.03
20971;BME280;10644;48.834;10.088;2023-05-02T08:54:47;97111.81;;;15.49;63.21
20971;BME280;10644;48.834;10.088;2023-05-02T08:57:15;97118.38;;;15.67;63.21
20971;BME280;10644;48.834;10.088;2023-05-02T08:59:41;97110.91;;;15.75;62.85
20971;BME280;10644;48.834;10.088;2023-05-02T09:05:00;97123.19;;;16.09;62.10
20971;BME280;10644;48.834;10.088;2023-05-02T09:07:43;97121.13;;;16.14;62.42
20971;BME280;10644;48.834;10.088;2023-05-02T09:10:09;97120.69;;;16.20;61.30
20971;BME280;10644;48.834;10.088;2023-05-02T09:12:35;97119.66;;;16.22;61.60
20971;BME280;10644;48.834;10.088;2023-05-02T09:15:15;97121.47;;;16.33;61.52
20971;BME280;10644;48.834;10.088;2023-05-02T09:17:45;97127.28;;;16.49;61.02
20971;BME280;10644;48.834;10.088;2023-05-02T09:20:12;97108.84;;;16.53;60.96
20971;BME280;10644;48.834;10.088;2023-05-02T09:22:39;97120.25;;;16.51;60.72
20971;BME280;10644;48.834;10.088;2023-05-02T09:25:13;97118.34;;;16.65;60.66
20971;BME280;10644;48.834;10.088;2023-05-02T09:27:53;97119.72;;;16.82;60.05
20971;BME280;10644;48.834;10.088;2023-05-02T09:30:20;97114.09;;;16.88;60.06
20971;BME280;10644;48.834;10.088;2023-05-02T09:32:47;97115.38;;;16.82;59.69
20971;BME280;10644;48.834;10.088;2023-05-02T09:35:15;97119.13;;;16.78;59.49
20971;BME280;10644;48.834;10.088;2023-05-02T09:37:51;97117.84;;;16.84;59.61
20971;BME280;10644;48.834;10.088;2023-05-02T09:40:16;97114.69;;;16.91;59.94
20971;BME280;10644;48.834;10.088;2023-05-02T09:42:42;97123.25;;;16.81;59.39
20971;BME280;10644;48.834;10.088;2023-05-02T09:45:08;97122.56;;;16.90;59.11
20971;BME280;10644;48.834;10.088;2023-05-02T09:47:34;97125.50;;;17.09;59.44
20971;BME280;10644;48.834;10.088;2023-05-02T09:50:00;97129.63;;;17.11;59.50
20971;BME280;10644;48.834;10.088;2023-05-02T09:52:25;97126.31;;;17.09;59.42
20971;BME280;10644;48.834;10.088;2023-05-02T09:54:51;97128.78;;;17.11;59.60
20971;BME280;10644;48.834;10.088;2023-05-02T09:57:17;97121.03;;;17.11;59.55
20971;BME280;10644;48.834;10.088;2023-05-02T09:59:56;97117.31;;;17.26;59.46
20971;BME280;10644;48.834;10.088;2023-05-02T10:02:23;97126.06;;;17.36;58.68
20971;BME280;10644;48.834;10.088;2023-05-02T10:04:49;97120.13;;;17.23;59.14
20971;BME280;10644;48.834;10.088;2023-05-02T10:07:16;97122.13;;;17.19;59.16
20971;BME280;10644;48.834;10.088;2023-05-02T10:09:43;97119.44;;;17.55;58.98
20971;BME280;10644;48.834;10.088;2023-05-02T10:12:13;97116.72;;;17.57;57.41
20971;BME280;10644;48.834;10.088;2023-05-02T10:14:39;97124.03;;;17.63;57.15
20971;BME280;10644;48.834;10.088;2023-05-02T10:17:15;97123.03;;;17.87;56.48
20971;BME280;10644;48.834;10.088;2023-05-02T10:19:56;97117.47;;;17.59;56.44
20971;BME280;10644;48.834;10.088;2023-05-02T10:22:24;97121.34;;;17.64;56.25
20971;BME280;10644;48.834;10.088;2023-05-02T10:24:51;97121.47;;;17.74;55.54
20971;BME280;10644;48.834;10.088;2023-05-02T10:27:17;97123.88;;;17.99;55.39
20971;BME280;10644;48.834;10.088;2023-05-02T10:29:43;97118.22;;;18.27;54.51
20971;BME280;10644;48.834;10.088;2023-05-02T10:32:12;97113.75;;;18.51;53.05
20971;BME280;10644;48.834;10.088;2023-05-02T10:34:39;97113.25;;;18.57;53.32
20971;BME280;10644;48.834;10.088;2023-05-02T10:37:05;97109.97;;;18.55;53.35
20971;BME280;10644;48.834;10.088;2023-05-02T10:39:31;97117.50;;;18.25;54.11
20971;BME280;10644;48.834;10.088;2023-05-02T10:41:58;97117.03;;;18.53;54.44
20971;BME280;10644;48.834;10.088;2023-05-02T10:44:40;97104.88;;;18.96;54.06
20971;BME280;10644;48.834;10.088;2023-05-02T10:47:25;97103.59;;;19.33;51.81
20971;BME280;10644;48.834;10.088;2023-05-02T10:49:53;97102.81;;;19.42;50.40
20971;BME280;10644;48.834;10.088;2023-05-02T10:52:37;97101.81;;;19.33;49.75
20971;BME280;10644;48.834;10.088;2023-05-02T10:55:16;97096.50;;;19.03;48.70
20971;BME280;10644;48.834;10.088;2023-05-02T11:00:31;97092.88;;;19.67;49.53
20971;BME280;10644;48.834;10.088;2023-05-02T11:02:58;97094.91;;;19.94;48.84
20971;BME280;10644;48.834;10.088;2023-05-02T11:05:24;97091.69;;;20.01;47.72
20971;BME280;10644;48.834;10.088;2023-05-02T11:10:47;97082.88;;;19.93;47.09
20971;BME280;10644;48.834;10.088;2023-05-02T11:13:12;97083.00;;;20.12;45.70
20971;BME280;10644;48.834;10.088;2023-05-02T11:18:06;97088.72;;;20.45;46.19
20971;BME280;10644;48.834;10.088;2023-05-02T11:20:34;97067.97;;;20.25;47.24
20971;BME280;10644;48.834;10.088;2023-05-02T11:30:58;97069.63;;;20.26;47.35
20971;BME280;10644;48.834;10.088;2023-05-02T11:33:26;97078.63;;;20.52;45.64
20971;BME280;10644;48.834;10.088;2023-05-02T11:35:52;97072.63;;;20.80;45.45
20971;BME280;10644;48.834;10.088;2023-05-02T11:38:19;97066.63;;;20.89;45.51
20971;BME280;10644;48.834;10.088;2023-05-02T11:40:51;97071.44;;;21.12;44.20
20971;BME280;10644;48.834;10.088;2023-05-02T11:43:18;97075.97;;;21.10;43.28
20971;BME280;10644;48.834;10.088;2023-05-02T11:45:45;97074.69;;;20.86;42.42
20971;BME280;10644;48.834;10.088;2023-05-02T11:48:12;97061.19;;;20.43;43.14
20971;BME280;10644;48.834;10.088;2023-05-02T11:50:45;97073.22;;;20.44;43.67
20971;BME280;10644;48.834;10.088;2023-05-02T11:53:16;97074.63;;;20.48;43.64
20971;BME280;10644;48.834;10.088;2023-05-02T11:55:46;97070.28;;;20.77;42.69
20971;BME280;10644;48.834;10.088;2023-05-02T11:58:16;97067.44;;;20.80;41.51
20971;BME280;10644;48.834;10.088;2023-05-02T12:00:42;97071.06;;;20.58;42.34
20971;BME280;10644;48.834;10.088;2023-05-02T12:05:46;97071.78;;;20.70;42.87
20971;BME280;10644;48.834;10.088;2023-05-02T12:08:23;97067.81;;;20.75;42.71
20971;BME280;10644;48.834;10.088;2023-05-02T12:10:50;97069.47;;;20.86;42.55
20971;BME280;10644;48.834;10.088;2023-05-02T12:13:17;97063.31;;;20.87;42.18
20971;BME280;10644;48.834;10.088;2023-05-02T12:15:42;97072.22;;;20.75;42.52
20971;BME280;10644;48.834;10.088;2023-05-02T12:18:08;97072.75;;;20.69;42.48
20971;BME280;10644;48.834;10.088;2023-05-02T12:20:35;97077.69;;;20.72;42.56
20971;BME280;10644;48.834;10.088;2023-05-02T12:23:00;97067.84;;;20.85;42.31
20971;BME280;10644;48.834;10.088;2023-05-02T12:25:26;97072.81;;;21.16;42.29
20971;BME280;10644;48.834;10.088;2023-05-02T12:28:01;97077.44;;;21.60;41.74
20971;BME280;10644;48.834;10.088;2023-05-02T12:30:28;97076.09;;;21.09;41.97
20971;BME280;10644;48.834;10.088;2023-05-02T12:32:57;97077.72;;;21.29;41.61
20971;BME280;10644;48.834;10.088;2023-05-02T12:35:24;97074.56;;;21.44;41.80
20971;BME280;10644;48.834;10.088;2023-05-02T12:37:49;97078.25;;;21.80;42.18
20971;BME280;10644;48.834;10.088;2023-05-02T12:40:15;97076.34;;;21.72;42.20
20971;BME280;10644;48.834;10.088;2023-05-02T12:42:41;97069.41;;;21.90;41.85
20971;BME280;10644;48.834;10.088;2023-05-02T12:45:16;97069.09;;;22.03;42.78
20971;BME280;10644;48.834;10.088;2023-05-02T12:47:45;97068.44;;;22.28;41.66
20971;BME280;10644;48.834;10.088;2023-05-02T12:50:12;97065.94;;;22.36;41.58
20971;BME280;10644;48.834;10.088;2023-05-02T12:52:51;97066.72;;;22.46;42.02
20971;BME280;10644;48.834;10.088;2023-05-02T12:55:24;97079.50;;;22.49;41.45
20971;BME280;10644;48.834;10.088;2023-05-02T12:58:02;97075.00;;;22.05;42.11
20971;BME280;10644;48.834;10.088;2023-05-02T13:00:29;97075.47;;;22.18;42.14
20971;BME280;10644;48.834;10.088;2023-05-02T13:02:54;97074.50;;;22.19;42.39
20971;BME280;10644;48.834;10.088;2023-05-02T13:05:20;97075.88;;;22.23;42.33
20971;BME280;10644;48.834;10.088;2023-05-02T13:07:45;97081.28;;;22.39;41.94
20971;BME280;10644;48.834;10.088;2023-05-02T13:10:11;97074.81;;;22.16;41.21
20971;BME280;10644;48.834;10.088;2023-05-02T13:12:37;97083.88;;;22.12;41.65
20971;BME280;10644;48.834;10.088;2023-05-02T13:15:07;97086.22;;;21.78;42.20
20971;BME280;10644;48.834;10.088;2023-05-02T13:17:33;97079.31;;;21.87;41.81
20971;BME280;10644;48.834;10.088;2023-05-02T13:19:58;97091.16;;;21.72;42.25
20971;BME280;10644;48.834;10.088;2023-05-02T13:22:24;97094.34;;;21.47;42.83
20971;BME280;10644;48.834;10.088;2023-05-02T13:24:50;97104.63;;;21.20;43.23
20971;BME280;10644;48.834;10.088;2023-05-02T13:27:16;97108.84;;;20.92;43.94